Time;durP1;ratioP1;P1;durP2;ratioP2;P2;SDS_P1;SDS_P2;PMS_P1;PMS_P2;Temp;Humidity;BMP_temperature;BMP_pressure;BME280_temperature;BME280_humidity;BME280_pressure;Samples;Min_cycle;Max_cycle;Signal;HPM_P1;HPM_P2
2020/12/06 00:01:50;;;;;;;34.20;19.95;;;9.40;83.40;;;;;;4975696;28;20050;-74
2020/12/06 00:04:20;;;;;;;26.15;16.45;;;9.40;83.50;;;;;;4958110;28;20062;-72
2020/12/06 00:06:46;;;;;;;37.20;20.98;;;9.40;83.50;;;;;;4975805;28;20027;-72
2020/12/06 00:09:12;;;;;;;24.23;15.65;;;9.40;83.60;;;;;;4958060;28;20050;-72
2020/12/06 00:11:38;;;;;;;40.97;23.95;;;9.30;83.70;;;;;;4958241;28;20352;-73
2020/12/06 00:14:05;;;;;;;48.05;25.90;;;9.30;83.90;;;;;;4958199;28;20030;-72
2020/12/06 00:16:31;;;;;;;48.00;28.23;;;9.30;83.70;;;;;;4958181;28;20033;-73
2020/12/06 00:18:56;;;;;;;41.65;23.00;;;9.30;84.00;;;;;;4975511;28;20023;-72
2020/12/06 00:21:22;;;;;;;42.92;25.92;;;9.30;83.90;;;;;;4975570;28;20118;-72
2020/12/06 00:23:49;;;;;;;53.63;28.92;;;9.30;84.00;;;;;;4975910;28;20451;-72
2020/12/06 00:26:21;;;;;;;31.88;20.05;;;9.20;84.10;;;;;;4957615;28;20034;-73
2020/12/06 00:28:47;;;;;;;32.45;17.77;;;9.20;84.20;;;;;;4958213;28;20023;-72
2020/12/06 00:31:12;;;;;;;41.97;23.65;;;9.20;84.30;;;;;;4957749;28;20027;-72
2020/12/06 00:33:38;;;;;;;32.83;19.08;;;9.20;85.00;;;;;;4957958;28;20113;-72
2020/12/06 00:36:04;;;;;;;31.25;18.92;;;9.20;84.50;;;;;;4975256;28;20031;-72
2020/12/06 00:38:30;;;;;;;28.50;18.05;;;9.10;84.70;;;;;;4957811;28;20030;-74
2020/12/06 00:40:55;;;;;;;27.77;17.55;;;9.10;84.60;;;;;;4958185;28;20039;-72
2020/12/06 00:43:21;;;;;;;25.02;15.48;;;9.10;84.90;;;;;;4957961;28;20039;-74
2020/12/06 00:45:47;;;;;;;25.40;16.58;;;9.10;84.70;;;;;;4974767;28;20026;-73
2020/12/06 00:48:13;;;;;;;25.98;16.92;;;9.20;84.80;;;;;;4975112;28;20023;-72
2020/12/06 00:50:38;;;;;;;25.42;16.45;;;9.20;84.70;;;;;;4957764;28;20529;-73
2020/12/06 00:53:04;;;;;;;25.52;16.25;;;9.20;84.70;;;;;;4957403;28;20073;-72
2020/12/06 00:55:30;;;;;;;25.67;16.25;;;9.20;84.70;;;;;;4957820;28;20037;-74
2020/12/06 00:57:56;;;;;;;25.38;15.88;;;9.20;85.30;;;;;;4957672;28;20360;-73
2020/12/06 01:00:21;;;;;;;26.50;16.83;;;9.20;84.80;;;;;;4957307;28;20122;-73
2020/12/06 01:02:47;;;;;;;29.98;17.00;;;9.20;84.70;;;;;;4958124;28;20081;-73
2020/12/06 01:05:13;;;;;;;23.90;15.25;;;9.20;84.70;;;;;;4957668;28;20389;-72
2020/12/06 01:07:40;;;;;;;25.75;15.73;;;9.20;84.70;;;;;;4957265;28;20027;-73
2020/12/06 01:10:07;;;;;;;29.42;16.75;;;9.20;84.60;;;;;;4957377;28;20142;-72
2020/12/06 01:12:34;;;;;;;25.27;15.95;;;9.20;84.70;;;;;;4974925;28;20031;-72
2020/12/06 01:15:00;;;;;;;28.27;16.90;;;9.20;84.70;;;;;;4957227;28;20040;-73
2020/12/06 01:17:25;;;;;;;28.83;15.27;;;9.20;84.70;;;;;;4974834;28;20027;-72
2020/12/06 01:19:51;;;;;;;25.58;16.80;;;9.20;84.80;;;;;;4957500;28;20027;-72
2020/12/06 01:22:17;;;;;;;24.80;16.00;;;9.20;84.60;;;;;;4957213;28;20035;-73
2020/12/06 01:24:43;;;;;;;30.02;18.85;;;9.30;84.60;;;;;;4957472;28;20166;-75
2020/12/06 01:27:09;;;;;;;31.83;19.88;;;9.30;84.60;;;;;;4957076;28;20030;-73
2020/12/06 01:29:34;;;;;;;33.90;21.88;;;9.20;84.60;;;;;;4957422;28;20027;-74
2020/12/06 01:32:00;;;;;;;49.50;29.40;;;9.30;84.60;;;;;;4957381;28;20194;-73
2020/12/06 01:34:26;;;;;;;44.53;26.60;;;9.30;84.50;;;;;;4974111;28;20102;-73
2020/12/06 01:36:52;;;;;;;36.17;21.67;;;9.20;84.70;;;;;;4957618;28;20066;-72
2020/12/06 01:39:19;;;;;;;32.85;19.67;;;9.20;84.60;;;;;;4974947;28;20031;-73
2020/12/06 01:41:45;;;;;;;28.95;18.85;;;9.30;84.70;;;;;;4956885;28;20057;-72
2020/12/06 01:44:11;;;;;;;28.60;18.27;;;9.20;84.80;;;;;;4957337;28;20386;-73
2020/12/06 01:46:38;;;;;;;33.75;19.08;;;9.20;84.80;;;;;;4956923;28;20086;-72
2020/12/06 01:49:05;;;;;;;31.58;17.83;;;9.20;85.00;;;;;;4974298;28;20040;-73
2020/12/06 01:51:33;;;;;;;36.17;20.85;;;9.20;85.10;;;;;;4957269;28;20030;-72
2020/12/06 01:53:59;;;;;;;26.90;17.02;;;9.20;85.00;;;;;;4974518;28;20023;-73
2020/12/06 01:56:25;;;;;;;44.20;24.60;;;9.20;85.20;;;;;;4959012;28;20114;-74
2020/12/06 01:58:51;;;;;;;36.05;20.50;;;9.20;85.10;;;;;;4960690;28;20122;-72
2020/12/06 02:01:16;;;;;;;37.33;20.73;;;9.20;85.20;;;;;;4960676;28;20458;-72
2020/12/06 02:03:42;;;;;;;38.92;21.30;;;9.20;85.10;;;;;;4960263;28;20035;-72
2020/12/06 02:06:08;;;;;;;33.53;18.42;;;9.10;85.20;;;;;;4960603;28;20078;-73
2020/12/06 02:08:34;;;;;;;25.75;16.13;;;9.10;85.10;;;;;;4978394;28;20090;-73
2020/12/06 02:11:01;;;;;;;30.27;15.90;;;9.10;85.30;;;;;;4977304;28;20039;-72
2020/12/06 02:13:27;;;;;;;43.85;22.20;;;9.20;85.30;;;;;;4960423;28;20174;-73
2020/12/06 02:15:54;;;;;;;36.05;20.08;;;9.20;85.10;;;;;;4960234;28;20054;-72
2020/12/06 02:18:20;;;;;;;36.85;21.23;;;9.20;85.90;;;;;;4977606;28;20034;-73
2020/12/06 02:20:47;;;;;;;28.05;16.40;;;9.10;85.10;;;;;;4960064;28;20027;-73
2020/12/06 02:23:12;;;;;;;36.50;22.63;;;9.20;85.30;;;;;;4977582;28;20037;-73
2020/12/06 02:25:40;;;;;;;34.15;21.42;;;9.20;85.30;;;;;;4960247;28;20031;-72
2020/12/06 02:28:07;;;;;;;29.95;18.08;;;9.20;85.10;;;;;;4960235;28;20058;-73
2020/12/06 02:30:33;;;;;;;31.65;18.98;;;9.20;85.20;;;;;;4959871;28;20026;-73
2020/12/06 02:33:04;;;;;;;34.33;19.67;;;9.20;85.20;;;;;;4977992;28;20077;-72
2020/12/06 02:35:29;;;;;;;30.02;18.35;;;9.20;85.20;;;;;;4959830;28;20146;-73
2020/12/06 02:37:55;;;;;;;25.20;15.65;;;9.20;85.30;;;;;;4977182;28;20043;-73
2020/12/06 02:40:21;;;;;;;29.60;17.88;;;9.10;85.40;;;;;;4960128;28;20023;-73
2020/12/06 02:42:47;;;;;;;24.45;14.52;;;9.10;85.50;;;;;;4977182;28;20043;-72
2020/12/06 02:45:12;;;;;;;30.50;18.58;;;9.10;85.50;;;;;;4959557;28;20030;-72
2020/12/06 02:47:38;;;;;;;33.35;18.33;;;9.10;85.20;;;;;;4959860;28;20038;-73
2020/12/06 02:50:05;;;;;;;27.40;17.08;;;9.10;85.40;;;;;;4959777;28;20026;-72
2020/12/06 02:52:31;;;;;;;34.13;20.92;;;9.10;85.60;;;;;;4959513;28;20541;-72
2020/12/06 02:54:57;;;;;;;30.08;16.77;;;9.10;85.40;;;;;;4960201;28;20030;-74
2020/12/06 02:57:23;;;;;;;38.78;23.17;;;9.10;85.50;;;;;;4959708;28;20122;-72
2020/12/06 02:59:49;;;;;;;26.15;15.52;;;9.10;85.40;;;;;;4959277;28;20055;-72
2020/12/06 03:02:15;;;;;;;28.40;17.42;;;9.10;85.40;;;;;;4959178;28;20065;-72
2020/12/06 03:04:41;;;;;;;25.88;15.38;;;9.10;85.30;;;;;;4976889;28;20026;-73
2020/12/06 03:07:07;;;;;;;28.27;16.23;;;9.10;85.40;;;;;;4958959;28;20118;-72
2020/12/06 03:09:32;;;;;;;24.73;16.95;;;9.10;85.40;;;;;;4956005;28;20047;-72
2020/12/06 03:11:58;;;;;;;26.20;17.20;;;9.10;85.50;;;;;;4955885;28;20035;-73
2020/12/06 03:14:24;;;;;;;31.13;19.08;;;9.10;85.40;;;;;;4958284;29;20024;-72
2020/12/06 03:16:50;;;;;;;32.28;18.58;;;9.10;85.50;;;;;;4957081;29;20031;-72
2020/12/06 03:19:16;;;;;;;37.25;22.52;;;9.10;86.00;;;;;;4955830;29;20144;-73
2020/12/06 03:21:42;;;;;;;32.00;20.20;;;9.10;85.70;;;;;;4955940;29;20071;-74
2020/12/06 03:24:07;;;;;;;24.52;15.75;;;9.10;85.50;;;;;;4957228;29;20027;-74
2020/12/06 03:26:33;;;;;;;25.70;16.88;;;9.00;85.70;;;;;;4955657;29;20058;-73
2020/12/06 03:28:59;;;;;;;33.13;19.92;;;9.10;85.70;;;;;;4956167;28;20479;-72
2020/12/06 03:31:25;;;;;;;24.35;15.75;;;9.00;85.40;;;;;;4955867;29;20474;-72
2020/12/06 03:33:50;;;;;;;29.65;17.48;;;9.10;85.60;;;;;;4956823;29;20450;-72
2020/12/06 03:36:16;;;;;;;33.15;20.05;;;9.00;85.60;;;;;;4957272;28;20027;-72
2020/12/06 03:38:42;;;;;;;39.30;24.40;;;9.00;85.60;;;;;;4955714;29;20058;-72
2020/12/06 03:41:08;;;;;;;78.22;45.10;;;9.00;85.70;;;;;;4955500;28;20059;-73
2020/12/06 03:43:33;;;;;;;79.30;46.53;;;9.00;85.70;;;;;;4955507;29;20039;-73
2020/12/06 03:45:59;;;;;;;70.53;43.55;;;9.00;85.80;;;;;;4955745;29;20356;-72
2020/12/06 03:48:25;;;;;;;54.03;33.65;;;8.90;85.80;;;;;;4956288;28;20035;-72
2020/12/06 03:50:50;;;;;;;62.75;39.90;;;8.90;86.10;;;;;;4955459;29;20038;-72
2020/12/06 03:53:16;;;;;;;65.38;40.08;;;8.90;86.00;;;;;;4956721;29;20038;-72
2020/12/06 03:55:42;;;;;;;68.50;43.20;;;8.90;86.10;;;;;;4956204;29;20419;-72
2020/12/06 03:58:08;;;;;;;66.15;41.00;;;8.90;86.20;;;;;;4956833;28;20460;-73
2020/12/06 04:00:34;;;;;;;64.65;42.25;;;8.90;86.20;;;;;;4956553;29;20086;-74
2020/12/06 04:03:00;;;;;;;63.70;38.30;;;8.90;86.20;;;;;;4955871;29;20035;-73
2020/12/06 04:05:26;;;;;;;56.45;38.13;;;8.90;86.10;;;;;;4956140;29;20134;-73
2020/12/06 04:07:52;;;;;;;45.53;27.52;;;8.90;86.00;;;;;;4955044;29;20122;-74
2020/12/06 04:10:19;;;;;;;41.22;27.08;;;8.80;86.10;;;;;;4954850;29;20051;-73
2020/12/06 04:12:46;;;;;;;38.40;24.95;;;8.80;86.20;;;;;;4955640;29;20035;-73
2020/12/06 04:15:12;;;;;;;34.67;24.05;;;8.80;86.30;;;;;;4954738;28;20027;-72
2020/12/06 04:17:39;;;;;;;41.85;27.65;;;8.80;86.30;;;;;;4956325;28;20034;-72
2020/12/06 04:20:05;;;;;;;41.83;28.10;;;8.80;86.40;;;;;;4954688;29;20031;-73
2020/12/06 04:22:31;;;;;;;50.35;33.70;;;8.80;86.30;;;;;;4954955;29;20035;-72
2020/12/06 04:24:57;;;;;;;49.15;33.00;;;8.80;86.40;;;;;;4955443;29;20058;-72
2020/12/06 04:27:23;;;;;;;39.55;24.95;;;8.80;87.10;;;;;;4954900;28;20456;-73
2020/12/06 04:29:49;;;;;;;33.20;22.23;;;8.70;86.60;;;;;;4955852;29;20046;-73
2020/12/06 04:32:15;;;;;;;129.45;45.53;;;8.80;86.60;;;;;;4955002;29;20467;-72
2020/12/06 04:34:41;;;;;;;82.45;34.40;;;8.70;86.60;;;;;;4954782;29;20487;-71
2020/12/06 04:37:07;;;;;;;93.82;42.30;;;8.80;86.60;;;;;;4954399;28;20023;-73
2020/12/06 04:39:33;;;;;;;69.30;32.33;;;8.80;86.50;;;;;;4955502;29;20379;-71
2020/12/06 04:42:00;;;;;;;29.75;18.27;;;8.80;86.40;;;;;;4954611;28;20472;-72
2020/12/06 04:44:26;;;;;;;51.30;29.73;;;8.80;86.40;;;;;;4954271;29;20027;-73
2020/12/06 04:47:02;;;;;;;42.15;27.73;;;8.80;86.40;;;;;;4956153;29;20024;-72
2020/12/06 04:49:45;;;;;;;58.55;36.03;;;8.80;86.50;;;;;;4956470;29;20031;-73
2020/12/06 04:52:15;;;;;;;46.78;31.95;;;8.80;86.70;;;;;;4954282;29;20526;-75
2020/12/06 04:54:42;;;;;;;134.82;68.82;;;8.80;86.60;;;;;;4954525;28;20027;-71
2020/12/06 04:57:10;;;;;;;93.78;54.13;;;8.80;86.70;;;;;;4954197;29;20084;-72
2020/12/06 04:59:41;;;;;;;96.13;55.70;;;8.80;86.60;;;;;;4955743;28;20371;-73
2020/12/06 05:02:09;;;;;;;78.70;45.83;;;8.80;86.70;;;;;;4954183;29;20035;-72
2020/12/06 05:04:40;;;;;;;81.25;50.10;;;8.80;86.90;;;;;;4955158;28;20039;-72
2020/12/06 05:07:05;;;;;;;71.55;45.42;;;8.80;86.90;;;;;;4954250;29;20035;-74
2020/12/06 05:09:35;;;;;;;76.28;46.40;;;8.80;87.00;;;;;;4954344;29;20070;-73
2020/12/06 05:12:05;;;;;;;70.38;43.10;;;8.80;87.10;;;;;;4955355;29;20035;-73
2020/12/06 05:14:31;;;;;;;66.93;38.35;;;8.80;87.00;;;;;;4955439;29;20401;-73
2020/12/06 05:16:57;;;;;;;70.40;37.72;;;8.80;87.00;;;;;;4954350;29;20027;-73
2020/12/06 05:19:27;;;;;;;43.60;27.27;;;8.80;87.10;;;;;;4955303;29;20027;-73
2020/12/06 05:21:53;;;;;;;65.00;34.45;;;8.80;87.10;;;;;;4954188;29;20415;-74
2020/12/06 05:24:20;;;;;;;64.25;34.85;;;8.80;86.90;;;;;;4956089;29;20035;-74
2020/12/06 05:26:46;;;;;;;37.70;23.50;;;8.80;86.80;;;;;;4954080;28;20035;-73
2020/12/06 05:29:13;;;;;;;43.72;24.00;;;8.90;86.60;;;;;;4954299;28;20368;-73
2020/12/06 05:31:39;;;;;;;31.75;19.20;;;8.90;86.60;;;;;;4959438;28;20034;-72
2020/12/06 05:34:04;;;;;;;37.10;22.05;;;8.90;86.50;;;;;;4959240;28;20031;-73
2020/12/06 05:36:30;;;;;;;38.35;21.65;;;8.90;86.40;;;;;;4957895;29;20035;-71
2020/12/06 05:38:56;;;;;;;46.45;25.20;;;8.90;86.20;;;;;;4957638;29;20038;-72
2020/12/06 05:41:21;;;;;;;50.70;28.92;;;8.90;86.20;;;;;;4958783;28;20102;-72
2020/12/06 05:43:47;;;;;;;44.03;26.65;;;8.90;86.20;;;;;;4958297;28;20035;-72
2020/12/06 05:46:17;;;;;;;74.47;40.08;;;8.80;86.00;;;;;;4957470;29;20399;-73
2020/12/06 05:48:44;;;;;;;55.00;31.67;;;8.90;86.10;;;;;;4957902;29;20497;-74
2020/12/06 05:51:11;;;;;;;128.43;60.22;;;8.90;86.10;;;;;;4957752;29;20031;-74
2020/12/06 05:53:37;;;;;;;224.82;82.75;;;8.80;86.10;;;;;;4958328;29;20481;-73
2020/12/06 05:56:16;;;;;;;154.65;57.10;;;8.80;86.20;;;;;;4959644;28;20027;-73
2020/12/06 05:58:44;;;;;;;189.98;65.97;;;8.80;86.10;;;;;;4959018;29;20035;-72
2020/12/06 06:01:14;;;;;;;181.48;59.50;;;8.80;86.10;;;;;;4957795;29;20170;-73
2020/12/06 06:03:42;;;;;;;160.38;57.35;;;8.80;86.00;;;;;;4957344;29;20038;-73
2020/12/06 06:06:21;;;;;;;141.27;48.90;;;8.80;86.00;;;;;;4957390;28;20035;-73
2020/12/06 06:08:49;;;;;;;315.23;98.53;;;8.80;86.00;;;;;;4956594;28;20082;-72
2020/12/06 06:11:29;;;;;;;259.02;86.10;;;8.80;85.90;;;;;;4957289;29;20110;-73
2020/12/06 06:13:55;;;;;;;122.63;49.83;;;8.80;86.10;;;;;;4958023;29;20443;-74
2020/12/06 06:16:23;;;;;;;232.07;81.53;;;8.80;86.10;;;;;;4957229;28;20431;-73
2020/12/06 06:18:50;;;;;;;84.03;39.17;;;8.80;86.10;;;;;;4957208;28;20069;-73
2020/12/06 06:21:41;;;;;;;54.78;32.50;;;8.80;86.10;;;;;;4956776;28;20031;-74
2020/12/06 06:24:10;;;;;;;56.45;34.47;;;8.80;86.00;;;;;;4947949;29;20049;-73
2020/12/06 06:26:39;;;;;;;53.33;34.40;;;8.80;86.10;;;;;;4958834;29;20498;-73
2020/12/06 06:29:15;;;;;;;56.45;35.15;;;8.80;86.10;;;;;;4956697;29;20027;-75
2020/12/06 06:31:44;;;;;;;65.35;41.30;;;8.80;85.90;;;;;;4957934;29;20418;-72
2020/12/06 06:34:09;;;;;;;52.33;33.05;;;8.80;85.90;;;;;;4958212;29;20031;-74
2020/12/06 06:36:36;;;;;;;51.30;30.15;;;8.80;85.70;;;;;;4957827;29;20027;-75
2020/12/06 06:39:04;;;;;;;38.13;24.55;;;8.80;85.60;;;;;;4956706;29;20467;-73
2020/12/06 06:41:31;;;;;;;42.45;26.33;;;8.90;85.60;;;;;;4957830;28;20098;-73
2020/12/06 06:44:05;;;;;;;37.08;21.85;;;9.00;85.50;;;;;;4956355;29;20085;-72
2020/12/06 06:46:32;;;;;;;47.85;29.60;;;9.00;85.30;;;;;;4957445;29;20035;-73
2020/12/06 06:49:06;;;;;;;36.53;24.50;;;9.00;85.10;;;;;;4956328;29;20038;-73
2020/12/06 06:51:32;;;;;;;53.72;32.42;;;9.00;85.00;;;;;;4956651;29;20170;-72
2020/12/06 06:54:04;;;;;;;43.22;29.67;;;9.00;85.10;;;;;;4958058;28;20122;-74
2020/12/06 06:56:30;;;;;;;35.65;24.27;;;9.10;84.80;;;;;;4956464;29;20390;-73
2020/12/06 06:58:58;;;;;;;36.85;25.33;;;9.10;84.80;;;;;;4957502;29;20102;-74
2020/12/06 07:01:24;;;;;;;57.10;40.83;;;9.20;84.70;;;;;;4958009;29;20086;-72
2020/12/06 07:03:52;;;;;;;49.50;34.80;;;9.20;84.40;;;;;;4955993;29;20121;-73
2020/12/06 07:06:43;;;;;;;47.45;32.67;;;9.20;84.40;;;;;;4956374;29;20383;-73
2020/12/06 07:09:09;;;;;;;51.17;32.45;;;9.30;84.60;;;;;;4955964;28;20403;-73
2020/12/06 07:11:37;;;;;;;45.20;30.23;;;9.30;84.40;;;;;;4955888;28;20027;-73
2020/12/06 07:14:03;;;;;;;40.75;26.88;;;9.30;84.30;;;;;;4956142;29;20486;-74
2020/12/06 07:16:29;;;;;;;36.28;26.35;;;9.40;83.90;;;;;;4956064;28;20027;-74
2020/12/06 07:18:54;;;;;;;32.90;24.08;;;9.50;83.80;;;;;;4956845;29;20034;-73
2020/12/06 07:21:20;;;;;;;25.40;17.25;;;9.50;83.60;;;;;;4956342;29;20031;-73
2020/12/06 07:23:46;;;;;;;24.73;15.02;;;9.60;83.20;;;;;;4957565;29;20034;-73
2020/12/06 07:26:12;;;;;;;23.83;14.70;;;9.60;82.80;;;;;;4956969;28;20441;-73
2020/12/06 07:28:38;;;;;;;25.27;14.63;;;9.70;82.40;;;;;;4956468;29;20031;-74
2020/12/06 07:31:04;;;;;;;24.88;16.13;;;9.80;82.20;;;;;;4956114;28;20035;-72
2020/12/06 07:33:29;;;;;;;32.38;19.13;;;9.80;82.00;;;;;;4955797;28;20067;-74
2020/12/06 07:35:55;;;;;;;43.60;21.88;;;9.90;82.00;;;;;;4955490;29;20027;-74
2020/12/06 07:38:21;;;;;;;44.20;23.88;;;10.00;81.50;;;;;;4955852;29;20027;-74
2020/12/06 07:40:47;;;;;;;53.97;29.65;;;10.00;81.40;;;;;;4955637;28;20027;-75
2020/12/06 07:43:14;;;;;;;35.47;23.27;;;10.10;81.20;;;;;;4955573;29;20042;-74
2020/12/06 07:45:40;;;;;;;35.58;21.77;;;10.10;81.10;;;;;;4955295;28;20089;-74
2020/12/06 07:48:06;;;;;;;34.13;23.33;;;10.20;80.60;;;;;;4956842;29;20024;-74
2020/12/06 07:50:32;;;;;;;25.60;16.85;;;10.20;80.50;;;;;;4955483;28;20379;-74
2020/12/06 07:53:02;;;;;;;24.45;15.63;;;10.30;80.60;;;;;;4954235;28;20038;-75
2020/12/06 07:55:28;;;;;;;22.45;14.77;;;10.30;80.10;;;;;;4955448;29;20085;-73
2020/12/06 07:57:57;;;;;;;24.17;15.20;;;10.30;80.00;;;;;;4955386;28;20118;-74
2020/12/06 08:00:30;;;;;;;26.67;15.63;;;10.40;79.60;;;;;;4955033;29;20023;-74
2020/12/06 08:02:59;;;;;;;27.95;16.55;;;10.40;79.60;;;;;;4955180;29;20035;-75
2020/12/06 08:05:31;;;;;;;22.65;14.55;;;10.50;79.10;;;;;;4955251;29;20083;-75
2020/12/06 08:08:01;;;;;;;23.15;14.25;;;10.50;78.90;;;;;;4956158;28;20475;-74
2020/12/06 08:10:28;;;;;;;20.90;13.90;;;10.60;78.60;;;;;;4973392;28;20043;-73
2020/12/06 08:12:55;;;;;;;22.98;13.13;;;10.70;78.60;;;;;;4957760;28;20382;-76
2020/12/06 08:15:25;;;;;;;26.33;15.70;;;10.80;78.60;;;;;;4958551;28;20433;-74
2020/12/06 08:17:53;;;;;;;21.35;14.30;;;10.80;78.20;;;;;;4957791;28;20045;-74
2020/12/06 08:20:21;;;;;;;20.73;13.57;;;11.00;77.70;;;;;;4957929;28;20030;-75
2020/12/06 08:22:58;;;;;;;24.00;16.00;;;11.00;77.40;;;;;;4957963;28;20030;-72
2020/12/06 08:25:30;;;;;;;21.60;13.38;;;11.20;76.90;;;;;;4958067;28;20026;-73
2020/12/06 08:27:58;;;;;;;21.70;13.73;;;11.20;76.90;;;;;;4975214;28;20418;-73
2020/12/06 08:30:27;;;;;;;23.88;15.60;;;11.30;76.30;;;;;;4958111;28;20474;-74
2020/12/06 08:33:04;;;;;;;22.15;14.43;;;11.30;76.10;;;;;;4957947;28;20030;-72
2020/12/06 08:35:43;;;;;;;24.92;14.13;;;11.40;76.80;;;;;;4957890;28;20259;-73
2020/12/06 08:38:37;;;;;;;21.33;13.65;;;11.50;75.50;;;;;;4957964;28;20027;-74
2020/12/06 08:41:12;;;;;;;23.23;13.37;;;11.60;75.30;;;;;;4958160;28;20455;-75
2020/12/06 08:44:01;;;;;;;23.63;12.75;;;11.60;75.50;;;;;;4957603;28;20035;-75
2020/12/06 08:46:27;;;;;;;20.23;13.57;;;11.70;75.00;;;;;;4975186;28;20057;-77
2020/12/06 08:48:55;;;;;;;20.80;13.00;;;11.80;73.80;;;;;;4957641;28;20039;-74
2020/12/06 08:51:28;;;;;;;19.50;12.23;;;11.80;74.10;;;;;;4957796;28;20027;-73
2020/12/06 08:53:54;;;;;;;20.88;12.23;;;11.80;74.00;;;;;;4975089;28;20026;-73
2020/12/06 08:56:25;;;;;;;20.83;12.63;;;11.80;73.60;;;;;;4957536;28;20585;-74
2020/12/06 08:58:51;;;;;;;19.27;12.00;;;11.90;73.20;;;;;;4958207;28;20030;-73
2020/12/06 09:01:16;;;;;;;19.13;11.00;;;11.90;73.20;;;;;;4957659;28;20485;-75
2020/12/06 09:03:42;;;;;;;19.27;11.70;;;12.00;73.50;;;;;;4957309;28;20150;-75
2020/12/06 09:06:15;;;;;;;17.05;11.45;;;12.20;72.20;;;;;;4963601;28;20031;-75
2020/12/06 09:08:41;;;;;;;17.88;11.27;;;12.40;70.70;;;;;;4964405;28;20105;-73
2020/12/06 09:11:12;;;;;;;18.40;12.20;;;12.60;70.30;;;;;;4963728;28;20474;-73
2020/12/06 09:13:38;;;;;;;19.90;13.32;;;12.80;69.90;;;;;;4963638;28;20054;-73
2020/12/06 09:16:04;;;;;;;17.15;11.48;;;13.10;70.10;;;;;;4963727;28;20084;-74
2020/12/06 09:18:29;;;;;;;17.40;11.73;;;13.10;68.10;;;;;;4963953;28;20030;-73
2020/12/06 09:20:55;;;;;;;20.30;11.35;;;13.20;68.10;;;;;;4964193;28;20054;-75
2020/12/06 09:23:21;;;;;;;18.52;10.88;;;13.40;67.50;;;;;;4963602;28;20031;-75
2020/12/06 09:25:47;;;;;;;15.93;10.82;;;13.40;67.30;;;;;;4981770;28;20089;-73
2020/12/06 09:28:12;;;;;;;21.35;12.35;;;13.30;67.00;;;;;;4963848;28;20035;-73
2020/12/06 09:30:40;;;;;;;21.25;13.30;;;13.40;67.30;;;;;;4963536;28;20047;-73
2020/12/06 09:33:06;;;;;;;16.92;11.63;;;13.40;67.60;;;;;;4964055;28;20125;-72
2020/12/06 09:35:31;;;;;;;16.25;11.07;;;13.50;66.70;;;;;;4964071;28;20449;-73
2020/12/06 09:37:57;;;;;;;19.05;11.10;;;13.60;66.40;;;;;;4980806;28;20107;-74
2020/12/06 09:40:23;;;;;;;17.02;12.23;;;13.60;67.00;;;;;;4963905;28;20121;-76
2020/12/06 09:42:48;;;;;;;15.25;10.98;;;13.80;66.10;;;;;;4963639;28;20121;-74
2020/12/06 09:45:14;;;;;;;16.45;10.60;;;14.00;65.20;;;;;;4963428;28;20034;-74
2020/12/06 09:47:40;;;;;;;20.10;11.55;;;14.20;64.70;;;;;;4981110;28;20092;-74
2020/12/06 09:50:05;;;;;;;34.40;13.55;;;14.20;64.40;;;;;;4963658;28;20072;-74
2020/12/06 09:52:31;;;;;;;96.65;26.10;;;14.40;63.70;;;;;;4963421;28;20037;-72
2020/12/06 09:54:57;;;;;;;21.50;10.70;;;14.40;64.30;;;;;;4963747;28;20031;-73
2020/12/06 09:57:25;;;;;;;26.38;12.77;;;14.30;63.80;;;;;;4963796;28;20027;-75
2020/12/06 09:59:51;;;;;;;20.17;12.10;;;14.20;63.20;;;;;;4963371;28;20031;-73
2020/12/06 10:02:17;;;;;;;16.20;10.65;;;14.40;63.40;;;;;;4980902;28;20066;-75
2020/12/06 10:04:42;;;;;;;14.80;10.68;;;14.20;63.90;;;;;;4963547;28;20069;-74
2020/12/06 10:07:08;;;;;;;17.00;10.88;;;14.40;63.60;;;;;;4980313;28;20033;-75
2020/12/06 10:09:34;;;;;;;16.38;10.25;;;14.50;62.80;;;;;;4963398;28;20070;-74
2020/12/06 10:11:59;;;;;;;19.83;10.20;;;14.60;62.80;;;;;;4963166;28;20062;-76
2020/12/06 10:14:25;;;;;;;15.27;9.80;;;14.40;63.30;;;;;;4963393;28;20522;-76
2020/12/06 10:16:51;;;;;;;18.20;10.05;;;14.30;63.80;;;;;;4959489;28;20500;-75
2020/12/06 10:19:17;;;;;;;18.60;10.25;;;14.40;63.50;;;;;;4958164;28;20117;-76
2020/12/06 10:21:43;;;;;;;14.13;10.13;;;14.40;63.80;;;;;;4959255;28;20045;-73
2020/12/06 10:24:08;;;;;;;17.55;10.23;;;14.40;63.00;;;;;;4959906;28;20031;-74
2020/12/06 10:26:34;;;;;;;18.13;11.82;;;14.40;63.30;;;;;;4977078;28;20074;-72
2020/12/06 10:29:00;;;;;;;18.27;12.18;;;14.50;63.40;;;;;;4961047;28;20360;-73
2020/12/06 10:31:26;;;;;;;16.52;10.88;;;14.60;63.70;;;;;;4978382;28;20030;-74
2020/12/06 10:33:52;;;;;;;20.50;11.02;;;14.60;63.10;;;;;;4977015;28;20041;-75
2020/12/06 10:36:17;;;;;;;16.90;10.60;;;14.50;63.40;;;;;;4960116;28;20031;-75
2020/12/06 10:38:43;;;;;;;18.20;10.75;;;14.70;62.70;;;;;;4977241;28;20065;-75
2020/12/06 10:41:12;;;;;;;16.55;10.90;;;14.90;62.60;;;;;;4943804;28;20038;-77
2020/12/06 10:43:38;;;;;;;17.23;12.30;;;15.00;62.50;;;;;;4960089;28;20035;-76
2020/12/06 10:46:03;;;;;;;18.15;11.80;;;15.20;61.30;;;;;;4960544;28;20097;-77
2020/12/06 10:48:29;;;;;;;18.83;12.23;;;15.20;60.70;;;;;;4959857;28;20540;-76
2020/12/06 10:50:55;;;;;;;20.38;13.30;;;15.50;60.20;;;;;;4977227;28;20054;-76
2020/12/06 10:53:21;;;;;;;17.20;11.55;;;15.80;59.60;;;;;;4959843;28;20042;-77
2020/12/06 10:55:46;;;;;;;16.27;10.05;;;15.70;58.80;;;;;;4959487;28;20108;-76
2020/12/06 10:58:12;;;;;;;18.48;10.65;;;15.70;59.00;;;;;;4959696;28;20027;-75
2020/12/06 11:00:38;;;;;;;17.45;11.32;;;15.90;58.70;;;;;;4959769;28;20031;-76
2020/12/06 11:03:04;;;;;;;15.20;11.10;;;16.10;59.00;;;;;;4959257;28;20034;-74
2020/12/06 11:05:29;;;;;;;22.92;13.43;;;16.10;58.40;;;;;;4970354;28;20031;-75
2020/12/06 11:07:55;;;;;;;17.17;10.88;;;16.10;58.00;;;;;;4948062;28;20027;-75
2020/12/06 11:10:21;;;;;;;15.55;10.18;;;16.00;57.70;;;;;;4962215;28;20391;-74
2020/12/06 11:12:47;;;;;;;16.30;10.77;;;16.00;58.40;;;;;;4971805;28;20455;-75
2020/12/06 11:15:13;;;;;;;17.35;10.25;;;16.20;58.30;;;;;;4956800;28;20054;-75
2020/12/06 11:17:38;;;;;;;15.60;10.32;;;16.20;57.90;;;;;;4959641;28;20054;-75
2020/12/06 11:20:05;;;;;;;15.90;9.85;;;16.40;57.60;;;;;;4959427;28;20482;-75
2020/12/06 11:22:31;;;;;;;13.93;9.10;;;16.60;57.10;;;;;;4950733;29;20122;-75
2020/12/06 11:24:56;;;;;;;18.77;10.43;;;16.50;56.60;;;;;;4940000;29;20054;-75
2020/12/06 11:27:22;;;;;;;15.10;10.48;;;16.60;56.60;;;;;;4969541;28;20039;-75
2020/12/06 11:29:48;;;;;;;17.20;11.55;;;16.60;55.70;;;;;;4952884;28;20490;-74
2020/12/06 11:32:14;;;;;;;17.20;11.40;;;16.60;56.40;;;;;;4958982;28;20030;-74
2020/12/06 11:34:40;;;;;;;18.27;9.45;;;16.60;56.20;;;;;;4958984;28;20180;-75
2020/12/06 11:37:07;;;;;;;21.30;15.48;;;16.80;56.40;;;;;;4954070;28;20025;-74
2020/12/06 11:39:33;;;;;;;16.33;10.52;;;16.70;55.90;;;;;;4957436;28;20031;-76
2020/12/06 11:41:59;;;;;;;13.07;9.38;;;16.60;55.70;;;;;;4958283;28;20033;-74
2020/12/06 11:44:25;;;;;;;14.63;8.60;;;16.40;56.50;;;;;;4958382;28;20070;-74
2020/12/06 11:46:51;;;;;;;15.63;9.32;;;16.50;56.50;;;;;;4959200;28;20027;-74
2020/12/06 11:49:17;;;;;;;16.00;9.25;;;16.80;56.50;;;;;;4954075;28;20452;-75
2020/12/06 11:51:42;;;;;;;17.73;9.57;;;16.90;55.60;;;;;;4958263;28;20027;-75
2020/12/06 11:54:08;;;;;;;21.75;12.68;;;16.80;56.20;;;;;;4967971;28;20027;-73
2020/12/06 11:56:35;;;;;;;21.13;12.98;;;17.00;55.90;;;;;;4995073;28;20030;-73
2020/12/06 11:59:01;;;;;;;24.77;14.52;;;17.00;55.50;;;;;;4977509;28;20508;-75
2020/12/06 12:01:27;;;;;;;19.50;11.32;;;17.00;54.50;;;;;;4977475;28;20113;-75
2020/12/06 12:03:52;;;;;;;17.85;11.63;;;17.10;55.80;;;;;;4977488;28;20121;-75
2020/12/06 12:06:18;;;;;;;18.90;11.02;;;17.10;55.00;;;;;;4995539;28;20125;-75
2020/12/06 12:08:46;;;;;;;29.83;19.88;;;17.20;54.70;;;;;;4977269;28;20405;-76
2020/12/06 12:11:12;;;;;;;25.92;16.75;;;17.10;55.00;;;;;;4976221;28;20032;-75
2020/12/06 12:13:39;;;;;;;39.08;23.13;;;17.20;54.40;;;;;;4994868;28;20030;-75
2020/12/06 12:16:05;;;;;;;13.25;9.82;;;17.40;55.70;;;;;;4977567;28;20076;-75
2020/12/06 12:18:31;;;;;;;17.17;10.90;;;17.30;54.60;;;;;;4977279;28;20042;-75
2020/12/06 12:20:57;;;;;;;18.83;11.27;;;17.40;54.30;;;;;;4977843;28;20033;-74
2020/12/06 12:23:23;;;;;;;20.63;12.68;;;17.40;54.60;;;;;;4977460;28;20026;-74
2020/12/06 12:25:48;;;;;;;15.45;10.15;;;17.60;54.00;;;;;;4994334;28;20085;-74
2020/12/06 12:28:14;;;;;;;20.50;12.75;;;17.50;54.10;;;;;;4977432;28;20031;-74
2020/12/06 12:30:40;;;;;;;17.80;11.18;;;17.60;54.10;;;;;;4995098;28;20041;-74
2020/12/06 12:33:06;;;;;;;16.58;10.25;;;17.60;53.60;;;;;;4977159;28;20520;-74